sensor_id;sensor_type;location;lat;lon;timestamp;P1;durP1;ratioP1;P2;durP2;ratioP2
19396;SDS011;9834;48.076;11.878;2023-03-14T00:02:13;2.50;;;1.13;;
19396;SDS011;9834;48.076;11.878;2023-03-14T00:04:40;1.50;;;1.00;;
19396;SDS011;9834;48.076;11.878;2023-03-14T00:07:11;0.70;;;0.63;;
19396;SDS011;9834;48.076;11.878;2023-03-14T00:09:39;0.60;;;0.60;;
19396;SDS011;9834;48.076;11.878;2023-03-14T00:12:06;0.80;;;0.80;;
19396;SDS011;9834;48.076;11.878;2023-03-14T00:14:35;0.93;;;0.67;;
19396;SDS011;9834;48.076;11.878;2023-03-14T00:17:02;0.40;;;0.40;;
19396;SDS011;9834;48.076;11.878;2023-03-14T00:19:30;0.50;;;0.50;;
19396;SDS011;9834;48.076;11.878;2023-03-14T00:21:57;0.40;;;0.40;;
19396;SDS011;9834;48.076;11.878;2023-03-14T00:24:26;0.73;;;0.40;;
19396;SDS011;9834;48.076;11.878;2023-03-14T00:26:54;0.60;;;0.60;;
19396;SDS011;9834;48.076;11.878;2023-03-14T00:29:21;0.83;;;0.60;;
19396;SDS011;9834;48.076;11.878;2023-03-14T00:31:49;1.43;;;0.53;;
19396;SDS011;9834;48.076;11.878;2023-03-14T00:34:16;0.37;;;0.37;;
19396;SDS011;9834;48.076;11.878;2023-03-14T00:36:44;0.67;;;0.40;;
19396;SDS011;9834;48.076;11.878;2023-03-14T00:39:12;1.80;;;0.60;;
19396;SDS011;9834;48.076;11.878;2023-03-14T00:41:41;0.63;;;0.60;;
19396;SDS011;9834;48.076;11.878;2023-03-14T00:44:08;0.40;;;0.40;;
19396;SDS011;9834;48.076;11.878;2023-03-14T00:46:35;1.07;;;0.50;;
19396;SDS011;9834;48.076;11.878;2023-03-14T00:49:02;1.60;;;0.70;;
19396;SDS011;9834;48.076;11.878;2023-03-14T00:51:30;0.40;;;0.40;;
19396;SDS011;9834;48.076;11.878;2023-03-14T00:53:58;1.90;;;0.80;;
19396;SDS011;9834;48.076;11.878;2023-03-14T00:56:26;1.27;;;0.70;;
19396;SDS011;9834;48.076;11.878;2023-03-14T00:58:55;1.03;;;0.80;;
19396;SDS011;9834;48.076;11.878;2023-03-14T01:01:23;0.57;;;0.57;;
19396;SDS011;9834;48.076;11.878;2023-03-14T01:03:51;2.83;;;0.73;;
19396;SDS011;9834;48.076;11.878;2023-03-14T01:06:19;0.77;;;0.70;;
19396;SDS011;9834;48.076;11.878;2023-03-14T01:08:48;2.40;;;1.03;;
19396;SDS011;9834;48.076;11.878;2023-03-14T01:11:17;0.20;;;0.20;;
19396;SDS011;9834;48.076;11.878;2023-03-14T01:13:46;0.43;;;0.43;;
19396;SDS011;9834;48.076;11.878;2023-03-14T01:16:15;0.33;;;0.33;;
19396;SDS011;9834;48.076;11.878;2023-03-14T01:18:44;0.57;;;0.50;;
19396;SDS011;9834;48.076;11.878;2023-03-14T01:21:13;0.23;;;0.23;;
19396;SDS011;9834;48.076;11.878;2023-03-14T01:23:42;0.70;;;0.63;;
19396;SDS011;9834;48.076;11.878;2023-03-14T01:26:11;5.83;;;0.43;;
19396;SDS011;9834;48.076;11.878;2023-03-14T01:28:39;0.90;;;0.70;;
19396;SDS011;9834;48.076;11.878;2023-03-14T01:31:07;0.40;;;0.40;;
19396;SDS011;9834;48.076;11.878;2023-03-14T01:33:38;0.63;;;0.47;;
19396;SDS011;9834;48.076;11.878;2023-03-14T01:36:06;0.30;;;0.30;;
19396;SDS011;9834;48.076;11.878;2023-03-14T01:38:35;0.53;;;0.40;;
19396;SDS011;9834;48.076;11.878;2023-03-14T01:41:03;0.23;;;0.20;;
19396;SDS011;9834;48.076;11.878;2023-03-14T01:43:32;0.40;;;0.40;;
19396;SDS011;9834;48.076;11.878;2023-03-14T01:48:53;0.93;;;0.50;;
19396;SDS011;9834;48.076;11.878;2023-03-14T01:51:27;0.30;;;0.30;;
19396;SDS011;9834;48.076;11.878;2023-03-14T01:54:04;0.27;;;0.27;;
19396;SDS011;9834;48.076;11.878;2023-03-14T01:56:35;1.37;;;0.27;;
19396;SDS011;9834;48.076;11.878;2023-03-14T01:59:03;0.30;;;0.30;;
19396;SDS011;9834;48.076;11.878;2023-03-14T02:01:33;0.57;;;0.50;;
19396;SDS011;9834;48.076;11.878;2023-03-14T02:04:04;0.50;;;0.50;;
19396;SDS011;9834;48.076;11.878;2023-03-14T02:06:34;0.20;;;0.20;;
19396;SDS011;9834;48.076;11.878;2023-03-14T02:09:07;0.70;;;0.20;;
19396;SDS011;9834;48.076;11.878;2023-03-14T02:11:35;0.50;;;0.33;;
19396;SDS011;9834;48.076;11.878;2023-03-14T02:14:03;0.30;;;0.30;;
19396;SDS011;9834;48.076;11.878;2023-03-14T02:16:31;0.43;;;0.40;;
19396;SDS011;9834;48.076;11.878;2023-03-14T02:18:59;0.20;;;0.20;;
19396;SDS011;9834;48.076;11.878;2023-03-14T02:21:29;0.37;;;0.30;;
19396;SDS011;9834;48.076;11.878;2023-03-14T02:24:08;0.13;;;0.13;;
19396;SDS011;9834;48.076;11.878;2023-03-14T02:26:42;0.40;;;0.37;;
19396;SDS011;9834;48.076;11.878;2023-03-14T02:29:12;0.53;;;0.40;;
19396;SDS011;9834;48.076;11.878;2023-03-14T02:31:40;0.10;;;0.10;;
19396;SDS011;9834;48.076;11.878;2023-03-14T02:34:07;0.53;;;0.37;;
19396;SDS011;9834;48.076;11.878;2023-03-14T02:36:35;0.73;;;0.40;;
19396;SDS011;9834;48.076;11.878;2023-03-14T02:39:05;0.83;;;0.40;;
19396;SDS011;9834;48.076;11.878;2023-03-14T02:41:37;0.20;;;0.20;;
19396;SDS011;9834;48.076;11.878;2023-03-14T02:44:04;1.27;;;0.50;;
19396;SDS011;9834;48.076;11.878;2023-03-14T02:46:33;0.67;;;0.40;;
19396;SDS011;9834;48.076;11.878;2023-03-14T02:49:01;0.17;;;0.17;;
19396;SDS011;9834;48.076;11.878;2023-03-14T02:51:31;0.30;;;0.30;;
19396;SDS011;9834;48.076;11.878;2023-03-14T02:53:59;0.10;;;0.10;;
19396;SDS011;9834;48.076;11.878;2023-03-14T02:56:26;0.20;;;0.20;;
19396;SDS011;9834;48.076;11.878;2023-03-14T02:58:53;0.37;;;0.20;;
19396;SDS011;9834;48.076;11.878;2023-03-14T03:01:22;0.67;;;0.20;;
19396;SDS011;9834;48.076;11.878;2023-03-14T03:03:51;0.30;;;0.30;;
19396;SDS011;9834;48.076;11.878;2023-03-14T03:06:19;0.30;;;0.30;;
19396;SDS011;9834;48.076;11.878;2023-03-14T03:08:47;0.93;;;0.30;;
19396;SDS011;9834;48.076;11.878;2023-03-14T03:11:15;0.20;;;0.20;;
19396;SDS011;9834;48.076;11.878;2023-03-14T03:13:42;0.20;;;0.20;;
19396;SDS011;9834;48.076;11.878;2023-03-14T03:16:10;0.10;;;0.10;;
19396;SDS011;9834;48.076;11.878;2023-03-14T03:18:38;0.23;;;0.23;;
19396;SDS011;9834;48.076;11.878;2023-03-14T03:21:07;0.10;;;0.10;;
19396;SDS011;9834;48.076;11.878;2023-03-14T03:23:35;0.10;;;0.10;;
19396;SDS011;9834;48.076;11.878;2023-03-14T03:26:02;0.23;;;0.20;;
19396;SDS011;9834;48.076;11.878;2023-03-14T03:28:30;0.10;;;0.10;;
19396;SDS011;9834;48.076;11.878;2023-03-14T03:30:58;0.20;;;0.20;;
19396;SDS011;9834;48.076;11.878;2023-03-14T03:33:25;0.20;;;0.20;;
19396;SDS011;9834;48.076;11.878;2023-03-14T03:35:53;0.37;;;0.27;;
19396;SDS011;9834;48.076;11.878;2023-03-14T03:38:21;0.10;;;0.10;;
19396;SDS011;9834;48.076;11.878;2023-03-14T03:40:49;0.20;;;0.20;;
19396;SDS011;9834;48.076;11.878;2023-03-14T03:43:17;0.10;;;0.10;;
19396;SDS011;9834;48.076;11.878;2023-03-14T03:45:44;0.10;;;0.10;;
19396;SDS011;9834;48.076;11.878;2023-03-14T03:48:12;0.10;;;0.10;;
19396;SDS011;9834;48.076;11.878;2023-03-14T03:50:44;0.40;;;0.10;;
19396;SDS011;9834;48.076;11.878;2023-03-14T03:53:12;0.10;;;0.10;;
19396;SDS011;9834;48.076;11.878;2023-03-14T03:55:41;0.10;;;0.10;;
19396;SDS011;9834;48.076;11.878;2023-03-14T03:58:09;0.10;;;0.10;;
19396;SDS011;9834;48.076;11.878;2023-03-14T04:00:37;0.10;;;0.10;;
19396;SDS011;9834;48.076;11.878;2023-03-14T04:03:05;0.10;;;0.10;;
19396;SDS011;9834;48.076;11.878;2023-03-14T04:05:32;0.20;;;0.20;;
19396;SDS011;9834;48.076;11.878;2023-03-14T04:08:00;0.63;;;0.13;;
19396;SDS011;9834;48.076;11.878;2023-03-14T04:10:28;0.20;;;0.20;;
19396;SDS011;9834;48.076;11.878;2023-03-14T04:12:57;0.50;;;0.30;;
19396;SDS011;9834;48.076;11.878;2023-03-14T04:15:24;0.10;;;0.10;;
19396;SDS011;9834;48.076;11.878;2023-03-14T04:17:56;0.20;;;0.20;;
19396;SDS011;9834;48.076;11.878;2023-03-14T04:20:23;3.60;;;0.20;;
19396;SDS011;9834;48.076;11.878;2023-03-14T04:22:50;0.00;;;0.00;;
19396;SDS011;9834;48.076;11.878;2023-03-14T04:25:18;0.20;;;0.20;;
19396;SDS011;9834;48.076;11.878;2023-03-14T04:27:46;0.10;;;0.10;;
19396;SDS011;9834;48.076;11.878;2023-03-14T04:30:15;1.83;;;0.30;;
19396;SDS011;9834;48.076;11.878;2023-03-14T04:32:43;0.20;;;0.20;;
19396;SDS011;9834;48.076;11.878;2023-03-14T04:35:10;0.13;;;0.13;;
19396;SDS011;9834;48.076;11.878;2023-03-14T04:37:38;0.30;;;0.30;;
19396;SDS011;9834;48.076;11.878;2023-03-14T04:40:07;0.10;;;0.10;;
19396;SDS011;9834;48.076;11.878;2023-03-14T04:42:36;0.17;;;0.17;;
19396;SDS011;9834;48.076;11.878;2023-03-14T04:45:04;0.20;;;0.10;;
19396;SDS011;9834;48.076;11.878;2023-03-14T04:47:34;0.10;;;0.10;;
19396;SDS011;9834;48.076;11.878;2023-03-14T04:50:01;0.10;;;0.10;;
19396;SDS011;9834;48.076;11.878;2023-03-14T04:52:29;0.10;;;0.10;;
19396;SDS011;9834;48.076;11.878;2023-03-14T04:54:56;0.10;;;0.10;;
19396;SDS011;9834;48.076;11.878;2023-03-14T04:57:24;0.20;;;0.20;;
19396;SDS011;9834;48.076;11.878;2023-03-14T04:59:51;0.47;;;0.37;;
19396;SDS011;9834;48.076;11.878;2023-03-14T05:02:19;0.00;;;0.00;;
19396;SDS011;9834;48.076;11.878;2023-03-14T05:04:48;0.10;;;0.10;;
19396;SDS011;9834;48.076;11.878;2023-03-14T05:07:15;0.23;;;0.23;;
19396;SDS011;9834;48.076;11.878;2023-03-14T05:09:42;0.00;;;0.00;;
19396;SDS011;9834;48.076;11.878;2023-03-14T05:12:10;0.23;;;0.23;;
19396;SDS011;9834;48.076;11.878;2023-03-14T05:14:37;0.10;;;0.10;;
19396;SDS011;9834;48.076;11.878;2023-03-14T05:17:05;0.93;;;0.10;;
19396;SDS011;9834;48.076;11.878;2023-03-14T05:19:32;0.10;;;0.10;;
19396;SDS011;9834;48.076;11.878;2023-03-14T05:22:02;0.10;;;0.10;;
19396;SDS011;9834;48.076;11.878;2023-03-14T05:24:29;0.20;;;0.20;;
19396;SDS011;9834;48.076;11.878;2023-03-14T05:26:57;0.00;;;0.00;;
19396;SDS011;9834;48.076;11.878;2023-03-14T05:29:25;0.60;;;0.10;;
19396;SDS011;9834;48.076;11.878;2023-03-14T05:31:52;0.20;;;0.20;;
19396;SDS011;9834;48.076;11.878;2023-03-14T05:34:20;0.10;;;0.10;;
19396;SDS011;9834;48.076;11.878;2023-03-14T05:36:47;0.10;;;0.10;;
19396;SDS011;9834;48.076;11.878;2023-03-14T05:39:16;0.20;;;0.20;;
19396;SDS011;9834;48.076;11.878;2023-03-14T05:41:43;0.27;;;0.20;;
19396;SDS011;9834;48.076;11.878;2023-03-14T05:44:10;0.10;;;0.10;;
19396;SDS011;9834;48.076;11.878;2023-03-14T05:46:37;0.10;;;0.10;;
19396;SDS011;9834;48.076;11.878;2023-03-14T05:49:05;0.20;;;0.20;;
19396;SDS011;9834;48.076;11.878;2023-03-14T05:51:32;0.10;;;0.10;;
19396;SDS011;9834;48.076;11.878;2023-03-14T05:54:00;1.07;;;0.20;;
19396;SDS011;9834;48.076;11.878;2023-03-14T05:56:29;0.10;;;0.10;;
19396;SDS011;9834;48.076;11.878;2023-03-14T05:58:56;0.17;;;0.17;;
19396;SDS011;9834;48.076;11.878;2023-03-14T06:01:24;0.00;;;0.00;;
19396;SDS011;9834;48.076;11.878;2023-03-14T06:03:51;0.10;;;0.10;;
19396;SDS011;9834;48.076;11.878;2023-03-14T06:06:19;0.20;;;0.20;;
19396;SDS011;9834;48.076;11.878;2023-03-14T06:08:46;0.03;;;0.03;;
19396;SDS011;9834;48.076;11.878;2023-03-14T06:11:14;0.17;;;0.10;;
19396;SDS011;9834;48.076;11.878;2023-03-14T06:13:43;0.20;;;0.20;;
19396;SDS011;9834;48.076;11.878;2023-03-14T06:16:11;0.20;;;0.20;;
19396;SDS011;9834;48.076;11.878;2023-03-14T06:18:39;0.20;;;0.20;;
19396;SDS011;9834;48.076;11.878;2023-03-14T06:21:07;0.20;;;0.20;;
19396;SDS011;9834;48.076;11.878;2023-03-14T06:23:35;0.50;;;0.10;;
19396;SDS011;9834;48.076;11.878;2023-03-14T06:26:02;0.10;;;0.10;;
19396;SDS011;9834;48.076;11.878;2023-03-14T06:28:30;0.10;;;0.10;;
19396;SDS011;9834;48.076;11.878;2023-03-14T06:30:59;0.10;;;0.10;;
19396;SDS011;9834;48.076;11.878;2023-03-14T06:33:27;0.23;;;0.20;;
19396;SDS011;9834;48.076;11.878;2023-03-14T06:35:54;0.10;;;0.10;;
19396;SDS011;9834;48.076;11.878;2023-03-14T06:38:21;0.10;;;0.10;;
19396;SDS011;9834;48.076;11.878;2023-03-14T06:40:49;0.10;;;0.10;;
19396;SDS011;9834;48.076;11.878;2023-03-14T06:43:17;0.10;;;0.10;;
19396;SDS011;9834;48.076;11.878;2023-03-14T06:45:44;0.10;;;0.10;;
19396;SDS011;9834;48.076;11.878;2023-03-14T06:48:15;0.20;;;0.20;;
19396;SDS011;9834;48.076;11.878;2023-03-14T06:50:44;0.20;;;0.20;;
19396;SDS011;9834;48.076;11.878;2023-03-14T06:53:11;0.60;;;0.30;;
19396;SDS011;9834;48.076;11.878;2023-03-14T06:55:38;0.10;;;0.10;;
19396;SDS011;9834;48.076;11.878;2023-03-14T06:58:06;0.10;;;0.10;;
19396;SDS011;9834;48.076;11.878;2023-03-14T07:00:33;0.30;;;0.20;;
19396;SDS011;9834;48.076;11.878;2023-03-14T07:03:01;0.20;;;0.20;;
19396;SDS011;9834;48.076;11.878;2023-03-14T07:05:30;0.20;;;0.13;;
19396;SDS011;9834;48.076;11.878;2023-03-14T07:07:57;0.10;;;0.10;;
19396;SDS011;9834;48.076;11.878;2023-03-14T07:10:25;0.67;;;0.13;;
19396;SDS011;9834;48.076;11.878;2023-03-14T07:12:52;0.67;;;0.23;;
19396;SDS011;9834;48.076;11.878;2023-03-14T07:15:20;0.00;;;0.00;;
19396;SDS011;9834;48.076;11.878;2023-03-14T07:17:47;0.20;;;0.20;;
19396;SDS011;9834;48.076;11.878;2023-03-14T07:20:15;0.10;;;0.10;;
19396;SDS011;9834;48.076;11.878;2023-03-14T07:22:44;0.20;;;0.20;;
19396;SDS011;9834;48.076;11.878;2023-03-14T07:25:14;0.83;;;0.37;;
19396;SDS011;9834;48.076;11.878;2023-03-14T07:27:42;0.17;;;0.17;;
19396;SDS011;9834;48.076;11.878;2023-03-14T07:30:10;0.10;;;0.10;;
19396;SDS011;9834;48.076;11.878;2023-03-14T07:32:39;0.30;;;0.23;;
19396;SDS011;9834;48.076;11.878;2023-03-14T07:35:07;0.10;;;0.10;;
19396;SDS011;9834;48.076;11.878;2023-03-14T07:37:35;0.20;;;0.20;;
19396;SDS011;9834;48.076;11.878;2023-03-14T07:40:05;0.10;;;0.10;;
19396;SDS011;9834;48.076;11.878;2023-03-14T07:42:33;0.20;;;0.20;;
19396;SDS011;9834;48.076;11.878;2023-03-14T07:45:01;0.10;;;0.10;;
19396;SDS011;9834;48.076;11.878;2023-03-14T07:47:28;0.30;;;0.30;;
19396;SDS011;9834;48.076;11.878;2023-03-14T07:49:55;2.77;;;0.13;;
19396;SDS011;9834;48.076;11.878;2023-03-14T07:52:23;0.20;;;0.20;;
19396;SDS011;9834;48.076;11.878;2023-03-14T07:54:50;0.00;;;0.00;;
19396;SDS011;9834;48.076;11.878;2023-03-14T07:57:19;0.13;;;0.13;;
19396;SDS011;9834;48.076;11.878;2023-03-14T07:59:47;0.10;;;0.10;;
19396;SDS011;9834;48.076;11.878;2023-03-14T08:02:14;0.87;;;0.40;;
19396;SDS011;9834;48.076;11.878;2023-03-14T08:04:43;0.20;;;0.20;;
19396;SDS011;9834;48.076;11.878;2023-03-14T08:07:10;0.40;;;0.23;;
19396;SDS011;9834;48.076;11.878;2023-03-14T08:09:38;0.10;;;0.10;;
19396;SDS011;9834;48.076;11.878;2023-03-14T08:12:06;0.10;;;0.10;;
19396;SDS011;9834;48.076;11.878;2023-03-14T08:14:35;0.10;;;0.10;;
19396;SDS011;9834;48.076;11.878;2023-03-14T08:17:02;0.23;;;0.23;;
19396;SDS011;9834;48.076;11.878;2023-03-14T08:19:30;0.20;;;0.20;;
19396;SDS011;9834;48.076;11.878;2023-03-14T08:21:57;0.83;;;0.23;;
19396;SDS011;9834;48.076;11.878;2023-03-14T08:24:25;0.53;;;0.17;;
19396;SDS011;9834;48.076;11.878;2023-03-14T08:26:52;0.20;;;0.20;;
19396;SDS011;9834;48.076;11.878;2023-03-14T08:29:20;0.10;;;0.10;;
19396;SDS011;9834;48.076;11.878;2023-03-14T08:31:49;1.20;;;0.40;;
19396;SDS011;9834;48.076;11.878;2023-03-14T08:34:16;0.67;;;0.40;;
19396;SDS011;9834;48.076;11.878;2023-03-14T08:36:44;0.30;;;0.30;;
19396;SDS011;9834;48.076;11.878;2023-03-14T08:39:12;0.10;;;0.10;;
19396;SDS011;9834;48.076;11.878;2023-03-14T08:41:39;0.20;;;0.20;;
19396;SDS011;9834;48.076;11.878;2023-03-14T08:44:08;0.23;;;0.23;;
19396;SDS011;9834;48.076;11.878;2023-03-14T08:46:36;0.30;;;0.30;;
19396;SDS011;9834;48.076;11.878;2023-03-14T08:49:05;0.60;;;0.60;;
19396;SDS011;9834;48.076;11.878;2023-03-14T08:51:32;0.40;;;0.40;;
19396;SDS011;9834;48.076;11.878;2023-03-14T08:54:00;1.60;;;0.40;;
19396;SDS011;9834;48.076;11.878;2023-03-14T08:56:29;0.20;;;0.20;;
19396;SDS011;9834;48.076;11.878;2023-03-14T08:58:56;0.23;;;0.23;;
19396;SDS011;9834;48.076;11.878;2023-03-14T09:01:24;0.10;;;0.10;;
19396;SDS011;9834;48.076;11.878;2023-03-14T09:03:51;0.20;;;0.20;;
19396;SDS011;9834;48.076;11.878;2023-03-14T09:06:20;2.63;;;0.30;;
19396;SDS011;9834;48.076;11.878;2023-03-14T09:08:48;0.20;;;0.20;;
19396;SDS011;9834;48.076;11.878;2023-03-14T09:11:15;1.57;;;0.87;;
19396;SDS011;9834;48.076;11.878;2023-03-14T09:13:43;1.13;;;0.87;;
19396;SDS011;9834;48.076;11.878;2023-03-14T09:16:11;0.73;;;0.63;;
19396;SDS011;9834;48.076;11.878;2023-03-14T09:18:38;0.30;;;0.30;;
19396;SDS011;9834;48.076;11.878;2023-03-14T09:21:06;1.93;;;0.70;;
19396;SDS011;9834;48.076;11.878;2023-03-14T09:23:35;0.30;;;0.30;;
19396;SDS011;9834;48.076;11.878;2023-03-14T09:26:03;0.37;;;0.37;;
19396;SDS011;9834;48.076;11.878;2023-03-14T09:28:30;0.40;;;0.40;;
19396;SDS011;9834;48.076;11.878;2023-03-14T09:30:59;0.33;;;0.33;;
19396;SDS011;9834;48.076;11.878;2023-03-14T09:33:33;0.27;;;0.27;;
19396;SDS011;9834;48.076;11.878;2023-03-14T09:36:01;0.23;;;0.23;;
19396;SDS011;9834;48.076;11.878;2023-03-14T09:38:28;0.27;;;0.27;;
19396;SDS011;9834;48.076;11.878;2023-03-14T09:40:57;0.30;;;0.30;;
19396;SDS011;9834;48.076;11.878;2023-03-14T09:43:27;0.20;;;0.20;;
19396;SDS011;9834;48.076;11.878;2023-03-14T09:45:56;0.33;;;0.33;;
19396;SDS011;9834;48.076;11.878;2023-03-14T09:48:29;0.10;;;0.10;;
19396;SDS011;9834;48.076;11.878;2023-03-14T09:50:59;0.77;;;0.43;;
19396;SDS011;9834;48.076;11.878;2023-03-14T09:53:32;0.27;;;0.27;;
19396;SDS011;9834;48.076;11.878;2023-03-14T09:56:07;0.60;;;0.60;;
19396;SDS011;9834;48.076;11.878;2023-03-14T09:58:38;1.10;;;0.60;;
19396;SDS011;9834;48.076;11.878;2023-03-14T10:01:09;0.53;;;0.53;;
19396;SDS011;9834;48.076;11.878;2023-03-14T10:03:41;0.40;;;0.40;;
19396;SDS011;9834;48.076;11.878;2023-03-14T10:06:14;0.20;;;0.20;;
19396;SDS011;9834;48.076;11.878;2023-03-14T10:08:42;1.50;;;0.60;;
19396;SDS011;9834;48.076;11.878;2023-03-14T10:13:47;0.80;;;0.70;;
19396;SDS011;9834;48.076;11.878;2023-03-14T10:16:16;0.77;;;0.50;;
19396;SDS011;9834;48.076;11.878;2023-03-14T10:18:44;2.37;;;0.70;;
19396;SDS011;9834;48.076;11.878;2023-03-14T10:21:20;0.80;;;0.80;;
19396;SDS011;9834;48.076;11.878;2023-03-14T10:23:52;0.83;;;0.70;;
19396;SDS011;9834;48.076;11.878;2023-03-14T10:26:23;0.47;;;0.47;;
19396;SDS011;9834;48.076;11.878;2023-03-14T10:28:54;0.80;;;0.70;;
19396;SDS011;9834;48.076;11.878;2023-03-14T10:31:30;2.23;;;0.53;;
19396;SDS011;9834;48.076;11.878;2023-03-14T10:34:16;0.90;;;0.80;;
19396;SDS011;9834;48.076;11.878;2023-03-14T10:36:50;1.30;;;0.60;;
19396;SDS011;9834;48.076;11.878;2023-03-14T10:39:27;0.67;;;0.53;;
19396;SDS011;9834;48.076;11.878;2023-03-14T10:42:04;2.13;;;0.67;;
19396;SDS011;9834;48.076;11.878;2023-03-14T10:44:37;0.40;;;0.40;;
19396;SDS011;9834;48.076;11.878;2023-03-14T10:47:06;0.30;;;0.30;;
19396;SDS011;9834;48.076;11.878;2023-03-14T10:49:41;1.00;;;0.40;;
19396;SDS011;9834;48.076;11.878;2023-03-14T10:52:18;0.60;;;0.40;;
19396;SDS011;9834;48.076;11.878;2023-03-14T10:54:48;0.53;;;0.53;;
19396;SDS011;9834;48.076;11.878;2023-03-14T10:57:21;0.30;;;0.30;;
19396;SDS011;9834;48.076;11.878;2023-03-14T10:59:49;0.20;;;0.20;;
19396;SDS011;9834;48.076;11.878;2023-03-14T11:02:30;0.37;;;0.30;;
19396;SDS011;9834;48.076;11.878;2023-03-14T11:05:20;0.50;;;0.50;;
19396;SDS011;9834;48.076;11.878;2023-03-14T11:07:56;0.60;;;0.47;;
19396;SDS011;9834;48.076;11.878;2023-03-14T11:10:31;0.40;;;0.40;;
19396;SDS011;9834;48.076;11.878;2023-03-14T11:13:07;0.30;;;0.27;;
19396;SDS011;9834;48.076;11.878;2023-03-14T11:15:44;0.20;;;0.20;;
19396;SDS011;9834;48.076;11.878;2023-03-14T11:18:35;0.10;;;0.10;;
19396;SDS011;9834;48.076;11.878;2023-03-14T11:21:24;0.40;;;0.40;;
19396;SDS011;9834;48.076;11.878;2023-03-14T11:24:01;0.20;;;0.20;;
19396;SDS011;9834;48.076;11.878;2023-03-14T11:26:52;0.20;;;0.20;;
19396;SDS011;9834;48.076;11.878;2023-03-14T11:29:31;0.67;;;0.50;;
19396;SDS011;9834;48.076;11.878;2023-03-14T11:32:04;0.30;;;0.30;;
19396;SDS011;9834;48.076;11.878;2023-03-14T11:34:40;0.20;;;0.10;;
19396;SDS011;9834;48.076;11.878;2023-03-14T11:37:16;0.27;;;0.20;;
19396;SDS011;9834;48.076;11.878;2023-03-14T11:39:51;1.90;;;0.40;;
19396;SDS011;9834;48.076;11.878;2023-03-14T11:42:24;0.67;;;0.20;;
19396;SDS011;9834;48.076;11.878;2023-03-14T11:44:54;0.20;;;0.20;;
19396;SDS011;9834;48.076;11.878;2023-03-14T11:47:24;0.13;;;0.13;;
19396;SDS011;9834;48.076;11.878;2023-03-14T11:49:56;1.17;;;0.30;;
19396;SDS011;9834;48.076;11.878;2023-03-14T11:52:28;0.73;;;0.53;;
19396;SDS011;9834;48.076;11.878;2023-03-14T11:55:00;0.10;;;0.10;;
19396;SDS011;9834;48.076;11.878;2023-03-14T11:57:30;0.20;;;0.20;;
19396;SDS011;9834;48.076;11.878;2023-03-14T12:00:00;0.50;;;0.30;;
19396;SDS011;9834;48.076;11.878;2023-03-14T12:02:33;0.20;;;0.20;;
19396;SDS011;9834;48.076;11.878;2023-03-14T12:05:30;0.40;;;0.40;;
19396;SDS011;9834;48.076;11.878;2023-03-14T12:10:56;0.20;;;0.20;;
19396;SDS011;9834;48.076;11.878;2023-03-14T12:13:28;0.40;;;0.20;;
19396;SDS011;9834;48.076;11.878;2023-03-14T12:16:00;0.43;;;0.40;;
19396;SDS011;9834;48.076;11.878;2023-03-14T12:18:32;0.30;;;0.30;;
19396;SDS011;9834;48.076;11.878;2023-03-14T12:21:03;1.33;;;0.80;;
19396;SDS011;9834;48.076;11.878;2023-03-14T12:23:34;4.97;;;0.50;;
19396;SDS011;9834;48.076;11.878;2023-03-14T12:26:12;1.40;;;0.60;;
19396;SDS011;9834;48.076;11.878;2023-03-14T12:28:43;0.73;;;0.23;;
19396;SDS011;9834;48.076;11.878;2023-03-14T12:34:27;0.10;;;0.10;;
19396;SDS011;9834;48.076;11.878;2023-03-14T12:37:01;0.20;;;0.20;;
19396;SDS011;9834;48.076;11.878;2023-03-14T12:39:41;0.10;;;0.10;;
19396;SDS011;9834;48.076;11.878;2023-03-14T12:42:13;0.10;;;0.10;;
19396;SDS011;9834;48.076;11.878;2023-03-14T12:44:47;0.20;;;0.20;;
19396;SDS011;9834;48.076;11.878;2023-03-14T12:50:24;0.10;;;0.10;;
19396;SDS011;9834;48.076;11.878;2023-03-14T12:53:02;0.20;;;0.20;;
19396;SDS011;9834;48.076;11.878;2023-03-14T12:55:58;0.20;;;0.20;;
19396;SDS011;9834;48.076;11.878;2023-03-14T12:58:34;0.30;;;0.20;;
19396;SDS011;9834;48.076;11.878;2023-03-14T13:01:06;0.03;;;0.03;;
19396;SDS011;9834;48.076;11.878;2023-03-14T13:03:45;1.77;;;0.67;;
19396;SDS011;9834;48.076;11.878;2023-03-14T13:12:18;0.17;;;0.17;;
19396;SDS011;9834;48.076;11.878;2023-03-14T13:14:53;0.10;;;0.10;;
19396;SDS011;9834;48.076;11.878;2023-03-14T13:17:23;0.20;;;0.20;;
19396;SDS011;9834;48.076;11.878;2023-03-14T13:19:55;0.20;;;0.20;;
19396;SDS011;9834;48.076;11.878;2023-03-14T13:22:27;0.03;;;0.03;;
19396;SDS011;9834;48.076;11.878;2023-03-14T13:25:00;0.10;;;0.10;;
19396;SDS011;9834;48.076;11.878;2023-03-14T13:27:29;0.20;;;0.20;;
19396;SDS011;9834;48.076;11.878;2023-03-14T13:29:58;0.00;;;0.00;;
19396;SDS011;9834;48.076;11.878;2023-03-14T13:32:32;0.17;;;0.17;;
19396;SDS011;9834;48.076;11.878;2023-03-14T13:35:01;0.10;;;0.10;;
19396;SDS011;9834;48.076;11.878;2023-03-14T13:37:29;0.10;;;0.10;;
19396;SDS011;9834;48.076;11.878;2023-03-14T13:39:57;0.10;;;0.10;;
19396;SDS011;9834;48.076;11.878;2023-03-14T13:42:25;0.10;;;0.10;;
19396;SDS011;9834;48.076;11.878;2023-03-14T13:44:55;1.17;;;0.37;;
19396;SDS011;9834;48.076;11.878;2023-03-14T13:47:24;0.40;;;0.20;;
19396;SDS011;9834;48.076;11.878;2023-03-14T13:49:52;0.10;;;0.10;;
19396;SDS011;9834;48.076;11.878;2023-03-14T13:52:23;0.03;;;0.03;;
19396;SDS011;9834;48.076;11.878;2023-03-14T13:54:54;0.20;;;0.20;;
19396;SDS011;9834;48.076;11.878;2023-03-14T13:57:22;0.10;;;0.10;;
19396;SDS011;9834;48.076;11.878;2023-03-14T13:59:59;0.10;;;0.10;;
19396;SDS011;9834;48.076;11.878;2023-03-14T14:02:35;0.10;;;0.10;;
19396;SDS011;9834;48.076;11.878;2023-03-14T14:05:04;0.20;;;0.20;;
19396;SDS011;9834;48.076;11.878;2023-03-14T14:07:34;0.10;;;0.10;;
19396;SDS011;9834;48.076;11.878;2023-03-14T14:10:03;0.07;;;0.07;;
19396;SDS011;9834;48.076;11.878;2023-03-14T14:12:32;0.10;;;0.10;;
19396;SDS011;9834;48.076;11.878;2023-03-14T14:15:04;0.10;;;0.10;;
19396;SDS011;9834;48.076;11.878;2023-03-14T14:17:34;0.20;;;0.20;;
19396;SDS011;9834;48.076;11.878;2023-03-14T14:20:05;0.03;;;0.03;;
19396;SDS011;9834;48.076;11.878;2023-03-14T14:22:36;0.10;;;0.10;;
19396;SDS011;9834;48.076;11.878;2023-03-14T14:25:05;0.10;;;0.10;;
19396;SDS011;9834;48.076;11.878;2023-03-14T14:27:35;0.67;;;0.30;;
19396;SDS011;9834;48.076;11.878;2023-03-14T14:30:05;0.20;;;0.20;;
19396;SDS011;9834;48.076;11.878;2023-03-14T14:32:50;0.20;;;0.20;;
19396;SDS011;9834;48.076;11.878;2023-03-14T14:35:22;0.10;;;0.10;;
19396;SDS011;9834;48.076;11.878;2023-03-14T14:37:52;0.20;;;0.20;;
19396;SDS011;9834;48.076;11.878;2023-03-14T14:40:20;0.20;;;0.20;;
19396;SDS011;9834;48.076;11.878;2023-03-14T14:42:49;0.00;;;0.00;;
19396;SDS011;9834;48.076;11.878;2023-03-14T14:45:18;0.10;;;0.10;;
19396;SDS011;9834;48.076;11.878;2023-03-14T14:47:50;0.43;;;0.10;;
19396;SDS011;9834;48.076;11.878;2023-03-14T14:50:27;0.17;;;0.17;;
19396;SDS011;9834;48.076;11.878;2023-03-14T14:52:58;0.57;;;0.20;;
19396;SDS011;9834;48.076;11.878;2023-03-14T14:55:29;1.10;;;0.33;;
19396;SDS011;9834;48.076;11.878;2023-03-14T14:58:11;0.03;;;0.03;;
19396;SDS011;9834;48.076;11.878;2023-03-14T15:00:40;0.20;;;0.20;;
19396;SDS011;9834;48.076;11.878;2023-03-14T15:03:16;0.27;;;0.27;;
19396;SDS011;9834;48.076;11.878;2023-03-14T15:05:43;3.60;;;0.30;;
19396;SDS011;9834;48.076;11.878;2023-03-14T15:08:12;0.20;;;0.20;;
19396;SDS011;9834;48.076;11.878;2023-03-14T15:10:39;0.10;;;0.10;;
19396;SDS011;9834;48.076;11.878;2023-03-14T15:13:07;0.20;;;0.20;;
19396;SDS011;9834;48.076;11.878;2023-03-14T15:15:34;0.10;;;0.10;;
19396;SDS011;9834;48.076;11.878;2023-03-14T15:18:02;0.07;;;0.07;;
19396;SDS011;9834;48.076;11.878;2023-03-14T15:20:35;0.47;;;0.20;;
19396;SDS011;9834;48.076;11.878;2023-03-14T15:23:04;0.20;;;0.20;;
19396;SDS011;9834;48.076;11.878;2023-03-14T15:25:37;0.10;;;0.10;;